sensor_id;sensor_type;location;lat;lon;timestamp;P1;durP1;ratioP1;P2;durP2;ratioP2
13343;SDS011;6741;48.964;9.406;2023-11-21T00:01:05;4.70;;;2.20;;
13343;SDS011;6741;48.964;9.406;2023-11-21T00:03:35;5.90;;;1.77;;
13343;SDS011;6741;48.964;9.406;2023-11-21T00:06:02;3.10;;;1.80;;
13343;SDS011;6741;48.964;9.406;2023-11-21T00:08:29;5.07;;;2.17;;
13343;SDS011;6741;48.964;9.406;2023-11-21T00:10:56;3.83;;;1.90;;
13343;SDS011;6741;48.964;9.406;2023-11-21T00:13:25;4.80;;;1.90;;
13343;SDS011;6741;48.964;9.406;2023-11-21T00:15:52;5.70;;;2.40;;
13343;SDS011;6741;48.964;9.406;2023-11-21T00:18:19;2.60;;;1.90;;
13343;SDS011;6741;48.964;9.406;2023-11-21T00:20:48;2.53;;;1.63;;
13343;SDS011;6741;48.964;9.406;2023-11-21T00:23:15;5.90;;;2.30;;
13343;SDS011;6741;48.964;9.406;2023-11-21T00:25:41;3.00;;;2.00;;
13343;SDS011;6741;48.964;9.406;2023-11-21T00:28:09;5.43;;;1.97;;
13343;SDS011;6741;48.964;9.406;2023-11-21T00:30:36;6.23;;;2.40;;
13343;SDS011;6741;48.964;9.406;2023-11-21T00:33:03;3.57;;;2.30;;
13343;SDS011;6741;48.964;9.406;2023-11-21T00:35:30;7.80;;;2.60;;
13343;SDS011;6741;48.964;9.406;2023-11-21T00:37:58;3.90;;;2.37;;
13343;SDS011;6741;48.964;9.406;2023-11-21T00:40:25;6.40;;;2.83;;
13343;SDS011;6741;48.964;9.406;2023-11-21T00:42:52;4.13;;;3.03;;
13343;SDS011;6741;48.964;9.406;2023-11-21T00:45:18;4.17;;;2.87;;
13343;SDS011;6741;48.964;9.406;2023-11-21T00:47:45;6.37;;;2.80;;
13343;SDS011;6741;48.964;9.406;2023-11-21T00:50:12;4.17;;;2.37;;
13343;SDS011;6741;48.964;9.406;2023-11-21T00:52:39;5.07;;;2.53;;
13343;SDS011;6741;48.964;9.406;2023-11-21T00:55:07;3.67;;;2.50;;
13343;SDS011;6741;48.964;9.406;2023-11-21T00:57:35;5.97;;;2.50;;
13343;SDS011;6741;48.964;9.406;2023-11-21T01:00:02;2.80;;;2.20;;
13343;SDS011;6741;48.964;9.406;2023-11-21T01:02:33;5.13;;;2.90;;
13343;SDS011;6741;48.964;9.406;2023-11-21T01:05:00;5.83;;;2.07;;
13343;SDS011;6741;48.964;9.406;2023-11-21T01:07:27;5.50;;;2.67;;
13343;SDS011;6741;48.964;9.406;2023-11-21T01:09:54;4.83;;;2.60;;
13343;SDS011;6741;48.964;9.406;2023-11-21T01:12:22;5.90;;;2.60;;
13343;SDS011;6741;48.964;9.406;2023-11-21T01:14:50;4.77;;;2.20;;
13343;SDS011;6741;48.964;9.406;2023-11-21T01:17:17;5.17;;;2.47;;
13343;SDS011;6741;48.964;9.406;2023-11-21T01:19:44;3.17;;;2.10;;
13343;SDS011;6741;48.964;9.406;2023-11-21T01:22:10;4.43;;;2.20;;
13343;SDS011;6741;48.964;9.406;2023-11-21T01:24:38;4.40;;;2.00;;
13343;SDS011;6741;48.964;9.406;2023-11-21T01:27:05;5.63;;;2.40;;
13343;SDS011;6741;48.964;9.406;2023-11-21T01:29:33;4.30;;;2.07;;
13343;SDS011;6741;48.964;9.406;2023-11-21T01:32:02;4.20;;;2.23;;
13343;SDS011;6741;48.964;9.406;2023-11-21T01:34:29;5.50;;;2.40;;
13343;SDS011;6741;48.964;9.406;2023-11-21T01:36:56;4.10;;;2.37;;
13343;SDS011;6741;48.964;9.406;2023-11-21T01:39:23;5.83;;;2.13;;
13343;SDS011;6741;48.964;9.406;2023-11-21T01:41:51;5.13;;;2.20;;
13343;SDS011;6741;48.964;9.406;2023-11-21T01:44:18;4.50;;;1.97;;
13343;SDS011;6741;48.964;9.406;2023-11-21T01:46:46;4.90;;;2.60;;
13343;SDS011;6741;48.964;9.406;2023-11-21T01:49:14;3.47;;;2.27;;
13343;SDS011;6741;48.964;9.406;2023-11-21T01:51:42;4.63;;;2.73;;
13343;SDS011;6741;48.964;9.406;2023-11-21T01:54:14;2.50;;;1.80;;
13343;SDS011;6741;48.964;9.406;2023-11-21T01:56:42;7.07;;;2.60;;
13343;SDS011;6741;48.964;9.406;2023-11-21T01:59:09;4.57;;;2.87;;
13343;SDS011;6741;48.964;9.406;2023-11-21T02:01:38;6.63;;;2.80;;
13343;SDS011;6741;48.964;9.406;2023-11-21T02:04:07;4.47;;;2.40;;
13343;SDS011;6741;48.964;9.406;2023-11-21T02:06:34;3.53;;;2.80;;
13343;SDS011;6741;48.964;9.406;2023-11-21T02:09:01;6.80;;;2.73;;
13343;SDS011;6741;48.964;9.406;2023-11-21T02:11:29;3.03;;;2.00;;
13343;SDS011;6741;48.964;9.406;2023-11-21T02:13:59;5.27;;;2.50;;
13343;SDS011;6741;48.964;9.406;2023-11-21T02:16:26;4.93;;;2.83;;
13343;SDS011;6741;48.964;9.406;2023-11-21T02:18:56;5.30;;;2.33;;
13343;SDS011;6741;48.964;9.406;2023-11-21T02:21:25;3.27;;;1.97;;
13343;SDS011;6741;48.964;9.406;2023-11-21T02:23:55;4.63;;;2.90;;
13343;SDS011;6741;48.964;9.406;2023-11-21T02:26:22;4.57;;;1.90;;
13343;SDS011;6741;48.964;9.406;2023-11-21T02:28:50;5.13;;;2.63;;
13343;SDS011;6741;48.964;9.406;2023-11-21T02:31:18;3.27;;;2.30;;
13343;SDS011;6741;48.964;9.406;2023-11-21T02:33:45;6.23;;;3.20;;
13343;SDS011;6741;48.964;9.406;2023-11-21T02:36:12;3.63;;;3.00;;
13343;SDS011;6741;48.964;9.406;2023-11-21T02:38:39;4.20;;;2.13;;
13343;SDS011;6741;48.964;9.406;2023-11-21T02:41:07;10.50;;;3.00;;
13343;SDS011;6741;48.964;9.406;2023-11-21T02:43:34;4.17;;;2.40;;
13343;SDS011;6741;48.964;9.406;2023-11-21T02:46:01;4.33;;;2.50;;
13343;SDS011;6741;48.964;9.406;2023-11-21T02:48:27;4.73;;;2.40;;
13343;SDS011;6741;48.964;9.406;2023-11-21T02:50:55;4.67;;;2.53;;
13343;SDS011;6741;48.964;9.406;2023-11-21T02:53:22;6.37;;;2.60;;
13343;SDS011;6741;48.964;9.406;2023-11-21T02:55:50;5.43;;;2.47;;
13343;SDS011;6741;48.964;9.406;2023-11-21T02:58:18;6.20;;;2.37;;
13343;SDS011;6741;48.964;9.406;2023-11-21T03:00:45;6.03;;;2.90;;
13343;SDS011;6741;48.964;9.406;2023-11-21T03:03:12;4.63;;;2.90;;
13343;SDS011;6741;48.964;9.406;2023-11-21T03:05:39;5.27;;;2.57;;
13343;SDS011;6741;48.964;9.406;2023-11-21T03:08:06;3.63;;;2.47;;
13343;SDS011;6741;48.964;9.406;2023-11-21T03:10:33;3.50;;;2.40;;
13343;SDS011;6741;48.964;9.406;2023-11-21T03:13:00;4.13;;;2.77;;
13343;SDS011;6741;48.964;9.406;2023-11-21T03:15:28;2.83;;;2.47;;
13343;SDS011;6741;48.964;9.406;2023-11-21T03:17:57;5.00;;;2.27;;
13343;SDS011;6741;48.964;9.406;2023-11-21T03:20:24;4.47;;;2.23;;
13343;SDS011;6741;48.964;9.406;2023-11-21T03:22:51;5.27;;;2.97;;
13343;SDS011;6741;48.964;9.406;2023-11-21T03:25:18;3.43;;;2.30;;
13343;SDS011;6741;48.964;9.406;2023-11-21T03:27:45;5.27;;;2.60;;
13343;SDS011;6741;48.964;9.406;2023-11-21T03:30:12;3.60;;;2.37;;
13343;SDS011;6741;48.964;9.406;2023-11-21T03:32:40;4.80;;;2.50;;
13343;SDS011;6741;48.964;9.406;2023-11-21T03:35:07;5.67;;;2.87;;
13343;SDS011;6741;48.964;9.406;2023-11-21T03:37:34;5.77;;;2.57;;
13343;SDS011;6741;48.964;9.406;2023-11-21T03:40:03;6.60;;;2.83;;
13343;SDS011;6741;48.964;9.406;2023-11-21T03:42:33;4.97;;;3.30;;
13343;SDS011;6741;48.964;9.406;2023-11-21T03:45:00;6.43;;;2.57;;
13343;SDS011;6741;48.964;9.406;2023-11-21T03:47:28;4.07;;;2.50;;
13343;SDS011;6741;48.964;9.406;2023-11-21T03:49:56;7.80;;;3.17;;
13343;SDS011;6741;48.964;9.406;2023-11-21T03:52:23;6.70;;;3.20;;
13343;SDS011;6741;48.964;9.406;2023-11-21T03:54:50;3.67;;;2.67;;
13343;SDS011;6741;48.964;9.406;2023-11-21T03:57:17;5.27;;;2.80;;
13343;SDS011;6741;48.964;9.406;2023-11-21T03:59:44;6.80;;;3.57;;
13343;SDS011;6741;48.964;9.406;2023-11-21T04:02:11;5.00;;;2.93;;
13343;SDS011;6741;48.964;9.406;2023-11-21T04:04:39;4.80;;;2.50;;
13343;SDS011;6741;48.964;9.406;2023-11-21T04:07:08;4.00;;;2.30;;
13343;SDS011;6741;48.964;9.406;2023-11-21T04:09:35;2.40;;;2.20;;
13343;SDS011;6741;48.964;9.406;2023-11-21T04:12:01;5.33;;;2.40;;
13343;SDS011;6741;48.964;9.406;2023-11-21T04:14:29;2.63;;;2.20;;
13343;SDS011;6741;48.964;9.406;2023-11-21T04:16:55;4.13;;;2.70;;
13343;SDS011;6741;48.964;9.406;2023-11-21T04:19:22;7.23;;;2.83;;
13343;SDS011;6741;48.964;9.406;2023-11-21T04:21:49;4.43;;;2.03;;
13343;SDS011;6741;48.964;9.406;2023-11-21T04:24:17;5.33;;;3.03;;
13343;SDS011;6741;48.964;9.406;2023-11-21T04:26:44;2.83;;;2.30;;
13343;SDS011;6741;48.964;9.406;2023-11-21T04:29:11;2.87;;;2.13;;
13343;SDS011;6741;48.964;9.406;2023-11-21T04:31:38;5.83;;;2.80;;
13343;SDS011;6741;48.964;9.406;2023-11-21T04:34:06;3.57;;;2.27;;
13343;SDS011;6741;48.964;9.406;2023-11-21T04:36:33;3.30;;;2.50;;
13343;SDS011;6741;48.964;9.406;2023-11-21T04:39:00;3.67;;;2.50;;
13343;SDS011;6741;48.964;9.406;2023-11-21T04:41:28;7.73;;;2.83;;
13343;SDS011;6741;48.964;9.406;2023-11-21T04:43:56;4.80;;;3.20;;
13343;SDS011;6741;48.964;9.406;2023-11-21T04:46:23;5.23;;;2.83;;
13343;SDS011;6741;48.964;9.406;2023-11-21T04:48:50;3.23;;;2.50;;
13343;SDS011;6741;48.964;9.406;2023-11-21T04:51:17;4.13;;;2.67;;
13343;SDS011;6741;48.964;9.406;2023-11-21T04:53:44;3.00;;;2.70;;
13343;SDS011;6741;48.964;9.406;2023-11-21T04:56:12;5.00;;;2.57;;
13343;SDS011;6741;48.964;9.406;2023-11-21T04:58:40;3.20;;;2.90;;
13343;SDS011;6741;48.964;9.406;2023-11-21T05:01:07;5.97;;;3.53;;
13343;SDS011;6741;48.964;9.406;2023-11-21T05:03:34;5.03;;;2.70;;
13343;SDS011;6741;48.964;9.406;2023-11-21T05:06:03;5.67;;;2.93;;
13343;SDS011;6741;48.964;9.406;2023-11-21T05:08:31;3.83;;;2.73;;
13343;SDS011;6741;48.964;9.406;2023-11-21T05:10:59;3.00;;;2.70;;
13343;SDS011;6741;48.964;9.406;2023-11-21T05:13:26;6.17;;;2.87;;
13343;SDS011;6741;48.964;9.406;2023-11-21T05:15:55;4.00;;;2.37;;
13343;SDS011;6741;48.964;9.406;2023-11-21T05:18:22;3.70;;;2.50;;
13343;SDS011;6741;48.964;9.406;2023-11-21T05:20:52;3.93;;;2.00;;
13343;SDS011;6741;48.964;9.406;2023-11-21T05:23:19;4.33;;;2.30;;
13343;SDS011;6741;48.964;9.406;2023-11-21T05:25:45;3.37;;;1.80;;
13343;SDS011;6741;48.964;9.406;2023-11-21T05:28:12;4.20;;;2.07;;
13343;SDS011;6741;48.964;9.406;2023-11-21T05:30:39;2.77;;;1.93;;
13343;SDS011;6741;48.964;9.406;2023-11-21T05:33:08;3.10;;;2.57;;
13343;SDS011;6741;48.964;9.406;2023-11-21T05:35:34;3.20;;;2.43;;
13343;SDS011;6741;48.964;9.406;2023-11-21T05:38:01;3.00;;;2.00;;
13343;SDS011;6741;48.964;9.406;2023-11-21T05:40:29;7.50;;;2.33;;
13343;SDS011;6741;48.964;9.406;2023-11-21T05:42:56;3.17;;;2.10;;
13343;SDS011;6741;48.964;9.406;2023-11-21T05:45:24;3.77;;;2.40;;
13343;SDS011;6741;48.964;9.406;2023-11-21T05:47:51;2.33;;;2.13;;
13343;SDS011;6741;48.964;9.406;2023-11-21T05:50:19;2.53;;;2.30;;
13343;SDS011;6741;48.964;9.406;2023-11-21T05:52:48;2.50;;;2.10;;
13343;SDS011;6741;48.964;9.406;2023-11-21T05:55:15;4.07;;;2.10;;
13343;SDS011;6741;48.964;9.406;2023-11-21T05:57:42;2.87;;;2.27;;
13343;SDS011;6741;48.964;9.406;2023-11-21T06:00:10;4.73;;;2.13;;
13343;SDS011;6741;48.964;9.406;2023-11-21T06:02:43;2.30;;;2.10;;
13343;SDS011;6741;48.964;9.406;2023-11-21T06:05:10;2.33;;;1.70;;
13343;SDS011;6741;48.964;9.406;2023-11-21T06:07:38;3.57;;;2.03;;
13343;SDS011;6741;48.964;9.406;2023-11-21T06:10:06;2.20;;;1.90;;
13343;SDS011;6741;48.964;9.406;2023-11-21T06:12:36;3.03;;;2.43;;
13343;SDS011;6741;48.964;9.406;2023-11-21T06:15:03;5.30;;;2.20;;
13343;SDS011;6741;48.964;9.406;2023-11-21T06:17:33;6.47;;;2.37;;
13343;SDS011;6741;48.964;9.406;2023-11-21T06:20:01;2.77;;;2.37;;
13343;SDS011;6741;48.964;9.406;2023-11-21T06:22:34;6.47;;;2.60;;
13343;SDS011;6741;48.964;9.406;2023-11-21T06:25:02;4.80;;;2.30;;
13343;SDS011;6741;48.964;9.406;2023-11-21T06:27:31;4.00;;;2.50;;
13343;SDS011;6741;48.964;9.406;2023-11-21T06:29:58;5.03;;;2.50;;
13343;SDS011;6741;48.964;9.406;2023-11-21T06:32:25;4.40;;;2.80;;
13343;SDS011;6741;48.964;9.406;2023-11-21T06:34:54;2.77;;;2.50;;
13343;SDS011;6741;48.964;9.406;2023-11-21T06:37:24;3.70;;;2.50;;
13343;SDS011;6741;48.964;9.406;2023-11-21T06:39:51;2.90;;;2.70;;
13343;SDS011;6741;48.964;9.406;2023-11-21T06:42:20;4.23;;;2.93;;
13343;SDS011;6741;48.964;9.406;2023-11-21T06:44:49;5.10;;;2.87;;
13343;SDS011;6741;48.964;9.406;2023-11-21T06:47:18;4.40;;;2.90;;
13343;SDS011;6741;48.964;9.406;2023-11-21T06:49:46;2.97;;;2.77;;
13343;SDS011;6741;48.964;9.406;2023-11-21T06:52:14;4.10;;;2.97;;
13343;SDS011;6741;48.964;9.406;2023-11-21T06:54:40;5.00;;;3.17;;
13343;SDS011;6741;48.964;9.406;2023-11-21T06:57:07;3.43;;;3.00;;
13343;SDS011;6741;48.964;9.406;2023-11-21T06:59:35;3.10;;;2.80;;
13343;SDS011;6741;48.964;9.406;2023-11-21T07:02:04;3.23;;;2.93;;
13343;SDS011;6741;48.964;9.406;2023-11-21T07:04:34;6.50;;;3.13;;
13343;SDS011;6741;48.964;9.406;2023-11-21T07:07:01;6.80;;;3.20;;
13343;SDS011;6741;48.964;9.406;2023-11-21T07:09:29;4.70;;;2.60;;
13343;SDS011;6741;48.964;9.406;2023-11-21T07:11:56;3.17;;;2.77;;
13343;SDS011;6741;48.964;9.406;2023-11-21T07:14:23;5.63;;;3.10;;
13343;SDS011;6741;48.964;9.406;2023-11-21T07:16:51;3.63;;;2.50;;
13343;SDS011;6741;48.964;9.406;2023-11-21T07:19:18;5.97;;;2.70;;
13343;SDS011;6741;48.964;9.406;2023-11-21T07:21:46;4.37;;;3.00;;
13343;SDS011;6741;48.964;9.406;2023-11-21T07:24:15;3.50;;;2.70;;
13343;SDS011;6741;48.964;9.406;2023-11-21T07:26:42;4.70;;;3.17;;
13343;SDS011;6741;48.964;9.406;2023-11-21T07:29:09;2.67;;;2.47;;
13343;SDS011;6741;48.964;9.406;2023-11-21T07:31:38;5.17;;;2.90;;
13343;SDS011;6741;48.964;9.406;2023-11-21T07:34:07;3.30;;;3.00;;
13343;SDS011;6741;48.964;9.406;2023-11-21T07:36:34;3.37;;;2.40;;
13343;SDS011;6741;48.964;9.406;2023-11-21T07:39:02;3.50;;;2.70;;
13343;SDS011;6741;48.964;9.406;2023-11-21T07:41:29;6.10;;;2.90;;
13343;SDS011;6741;48.964;9.406;2023-11-21T07:43:55;4.33;;;2.57;;
13343;SDS011;6741;48.964;9.406;2023-11-21T07:46:22;2.50;;;2.30;;
13343;SDS011;6741;48.964;9.406;2023-11-21T07:48:52;3.23;;;2.70;;
13343;SDS011;6741;48.964;9.406;2023-11-21T07:51:20;6.23;;;2.60;;
13343;SDS011;6741;48.964;9.406;2023-11-21T07:53:48;5.07;;;3.40;;
13343;SDS011;6741;48.964;9.406;2023-11-21T07:56:17;3.50;;;3.20;;
13343;SDS011;6741;48.964;9.406;2023-11-21T07:58:45;5.97;;;5.00;;
13343;SDS011;6741;48.964;9.406;2023-11-21T08:01:15;4.93;;;4.17;;
13343;SDS011;6741;48.964;9.406;2023-11-21T08:03:42;3.50;;;3.20;;
13343;SDS011;6741;48.964;9.406;2023-11-21T08:06:09;3.33;;;3.03;;
13343;SDS011;6741;48.964;9.406;2023-11-21T08:08:38;3.50;;;2.70;;
13343;SDS011;6741;48.964;9.406;2023-11-21T08:11:05;3.50;;;2.60;;
13343;SDS011;6741;48.964;9.406;2023-11-21T08:13:33;2.73;;;2.50;;
13343;SDS011;6741;48.964;9.406;2023-11-21T08:16:00;6.27;;;2.70;;
13343;SDS011;6741;48.964;9.406;2023-11-21T08:18:29;3.53;;;2.63;;
13343;SDS011;6741;48.964;9.406;2023-11-21T08:20:56;6.10;;;3.17;;
13343;SDS011;6741;48.964;9.406;2023-11-21T08:23:23;5.70;;;3.07;;
13343;SDS011;6741;48.964;9.406;2023-11-21T08:25:52;3.27;;;2.97;;
13343;SDS011;6741;48.964;9.406;2023-11-21T08:28:19;3.20;;;2.73;;
13343;SDS011;6741;48.964;9.406;2023-11-21T08:30:48;3.10;;;2.30;;
13343;SDS011;6741;48.964;9.406;2023-11-21T08:33:15;2.50;;;2.30;;
13343;SDS011;6741;48.964;9.406;2023-11-21T08:35:42;2.23;;;2.03;;
13343;SDS011;6741;48.964;9.406;2023-11-21T08:38:10;2.43;;;2.23;;
13343;SDS011;6741;48.964;9.406;2023-11-21T08:40:37;5.43;;;2.53;;
13343;SDS011;6741;48.964;9.406;2023-11-21T08:43:06;3.37;;;2.60;;
13343;SDS011;6741;48.964;9.406;2023-11-21T08:45:33;3.33;;;2.50;;
13343;SDS011;6741;48.964;9.406;2023-11-21T08:48:00;3.27;;;2.40;;
13343;SDS011;6741;48.964;9.406;2023-11-21T08:50:27;3.00;;;2.20;;
13343;SDS011;6741;48.964;9.406;2023-11-21T08:52:53;3.73;;;2.37;;
13343;SDS011;6741;48.964;9.406;2023-11-21T08:55:20;4.20;;;2.90;;
13343;SDS011;6741;48.964;9.406;2023-11-21T08:57:47;2.53;;;2.30;;
13343;SDS011;6741;48.964;9.406;2023-11-21T09:00:16;4.17;;;2.17;;
13343;SDS011;6741;48.964;9.406;2023-11-21T09:02:44;4.53;;;2.53;;
13343;SDS011;6741;48.964;9.406;2023-11-21T09:05:12;2.40;;;2.20;;
13343;SDS011;6741;48.964;9.406;2023-11-21T09:07:40;4.87;;;3.47;;
13343;SDS011;6741;48.964;9.406;2023-11-21T09:10:08;4.07;;;3.10;;
13343;SDS011;6741;48.964;9.406;2023-11-21T09:12:35;3.57;;;2.30;;
13343;SDS011;6741;48.964;9.406;2023-11-21T09:15:03;3.47;;;2.60;;
13343;SDS011;6741;48.964;9.406;2023-11-21T09:17:32;2.70;;;2.50;;
13343;SDS011;6741;48.964;9.406;2023-11-21T09:20:00;2.50;;;2.30;;
13343;SDS011;6741;48.964;9.406;2023-11-21T09:22:28;3.67;;;2.77;;
13343;SDS011;6741;48.964;9.406;2023-11-21T09:24:56;3.40;;;2.90;;
13343;SDS011;6741;48.964;9.406;2023-11-21T09:27:23;3.13;;;2.30;;
13343;SDS011;6741;48.964;9.406;2023-11-21T09:29:51;3.17;;;2.47;;
13343;SDS011;6741;48.964;9.406;2023-11-21T09:32:18;4.10;;;2.90;;
13343;SDS011;6741;48.964;9.406;2023-11-21T09:34:47;3.57;;;3.23;;
13343;SDS011;6741;48.964;9.406;2023-11-21T09:37:15;3.17;;;2.57;;
13343;SDS011;6741;48.964;9.406;2023-11-21T09:39:42;3.63;;;2.70;;
13343;SDS011;6741;48.964;9.406;2023-11-21T09:42:10;4.03;;;3.13;;
13343;SDS011;6741;48.964;9.406;2023-11-21T09:44:44;2.83;;;2.63;;
13343;SDS011;6741;48.964;9.406;2023-11-21T09:47:15;3.20;;;2.90;;
13343;SDS011;6741;48.964;9.406;2023-11-21T09:49:42;3.20;;;2.90;;
13343;SDS011;6741;48.964;9.406;2023-11-21T09:52:17;3.57;;;2.40;;
13343;SDS011;6741;48.964;9.406;2023-11-21T09:54:50;2.10;;;1.90;;
13343;SDS011;6741;48.964;9.406;2023-11-21T09:57:19;3.37;;;2.53;;
13343;SDS011;6741;48.964;9.406;2023-11-21T09:59:47;2.77;;;2.30;;
13343;SDS011;6741;48.964;9.406;2023-11-21T10:02:17;4.57;;;1.97;;
13343;SDS011;6741;48.964;9.406;2023-11-21T10:04:46;4.00;;;1.93;;
13343;SDS011;6741;48.964;9.406;2023-11-21T10:07:13;1.90;;;1.70;;
13343;SDS011;6741;48.964;9.406;2023-11-21T10:09:45;2.03;;;1.87;;
13343;SDS011;6741;48.964;9.406;2023-11-21T10:12:13;2.40;;;1.90;;
13343;SDS011;6741;48.964;9.406;2023-11-21T10:14:41;2.20;;;2.00;;
13343;SDS011;6741;48.964;9.406;2023-11-21T10:17:10;2.17;;;2.07;;
13343;SDS011;6741;48.964;9.406;2023-11-21T10:19:41;1.90;;;1.70;;
13343;SDS011;6741;48.964;9.406;2023-11-21T10:22:10;2.97;;;1.67;;
13343;SDS011;6741;48.964;9.406;2023-11-21T10:24:38;2.50;;;2.00;;
13343;SDS011;6741;48.964;9.406;2023-11-21T10:27:05;2.83;;;1.60;;
13343;SDS011;6741;48.964;9.406;2023-11-21T10:29:33;1.50;;;1.37;;
13343;SDS011;6741;48.964;9.406;2023-11-21T10:32:01;1.50;;;1.40;;
13343;SDS011;6741;48.964;9.406;2023-11-21T10:34:29;2.00;;;1.50;;
13343;SDS011;6741;48.964;9.406;2023-11-21T10:36:55;2.03;;;1.30;;
13343;SDS011;6741;48.964;9.406;2023-11-21T10:39:23;2.77;;;1.93;;
13343;SDS011;6741;48.964;9.406;2023-11-21T10:41:57;2.27;;;1.63;;
13343;SDS011;6741;48.964;9.406;2023-11-21T10:44:23;1.53;;;1.43;;
13343;SDS011;6741;48.964;9.406;2023-11-21T10:46:52;2.80;;;1.60;;
13343;SDS011;6741;48.964;9.406;2023-11-21T10:49:21;1.80;;;1.40;;
13343;SDS011;6741;48.964;9.406;2023-11-21T10:51:49;2.20;;;1.30;;
13343;SDS011;6741;48.964;9.406;2023-11-21T10:54:18;1.13;;;1.10;;
13343;SDS011;6741;48.964;9.406;2023-11-21T10:56:46;1.20;;;1.20;;
13343;SDS011;6741;48.964;9.406;2023-11-21T10:59:17;1.37;;;1.27;;
13343;SDS011;6741;48.964;9.406;2023-11-21T11:01:46;1.60;;;1.50;;
13343;SDS011;6741;48.964;9.406;2023-11-21T11:04:16;1.67;;;1.57;;
13343;SDS011;6741;48.964;9.406;2023-11-21T11:06:45;1.97;;;1.50;;
13343;SDS011;6741;48.964;9.406;2023-11-21T11:09:17;1.30;;;1.20;;
13343;SDS011;6741;48.964;9.406;2023-11-21T11:11:44;1.37;;;1.27;;
13343;SDS011;6741;48.964;9.406;2023-11-21T11:14:12;1.60;;;1.50;;
13343;SDS011;6741;48.964;9.406;2023-11-21T11:16:41;1.23;;;1.13;;
13343;SDS011;6741;48.964;9.406;2023-11-21T11:19:09;2.17;;;1.63;;
13343;SDS011;6741;48.964;9.406;2023-11-21T11:21:45;1.73;;;1.63;;
13343;SDS011;6741;48.964;9.406;2023-11-21T11:27:11;1.83;;;1.73;;
13343;SDS011;6741;48.964;9.406;2023-11-21T11:29:54;2.17;;;1.97;;
13343;SDS011;6741;48.964;9.406;2023-11-21T11:32:40;2.33;;;2.23;;
13343;SDS011;6741;48.964;9.406;2023-11-21T11:35:17;2.63;;;2.43;;
13343;SDS011;6741;48.964;9.406;2023-11-21T11:37:50;2.73;;;2.40;;
13343;SDS011;6741;48.964;9.406;2023-11-21T11:40:17;2.00;;;1.90;;
13343;SDS011;6741;48.964;9.406;2023-11-21T11:42:55;3.10;;;2.50;;
13343;SDS011;6741;48.964;9.406;2023-11-21T11:45:24;1.40;;;1.30;;
13343;SDS011;6741;48.964;9.406;2023-11-21T11:48:00;1.10;;;1.10;;
13343;SDS011;6741;48.964;9.406;2023-11-21T11:50:29;2.70;;;2.50;;
13343;SDS011;6741;48.964;9.406;2023-11-21T11:53:11;8.17;;;6.10;;
13343;SDS011;6741;48.964;9.406;2023-11-21T11:55:38;5.50;;;4.20;;
13343;SDS011;6741;48.964;9.406;2023-11-21T11:58:06;4.20;;;3.33;;
13343;SDS011;6741;48.964;9.406;2023-11-21T12:00:33;1.63;;;1.53;;
13343;SDS011;6741;48.964;9.406;2023-11-21T12:03:04;2.87;;;1.60;;
13343;SDS011;6741;48.964;9.406;2023-11-21T12:05:33;1.20;;;1.10;;
13343;SDS011;6741;48.964;9.406;2023-11-21T12:08:04;1.20;;;1.10;;
13343;SDS011;6741;48.964;9.406;2023-11-21T12:10:32;1.10;;;1.00;;
13343;SDS011;6741;48.964;9.406;2023-11-21T12:13:00;1.10;;;1.10;;
13343;SDS011;6741;48.964;9.406;2023-11-21T12:15:30;1.53;;;1.43;;
13343;SDS011;6741;48.964;9.406;2023-11-21T12:17:57;1.40;;;1.30;;
13343;SDS011;6741;48.964;9.406;2023-11-21T12:20:26;2.00;;;1.80;;
13343;SDS011;6741;48.964;9.406;2023-11-21T12:22:54;2.63;;;2.30;;
13343;SDS011;6741;48.964;9.406;2023-11-21T12:25:23;4.17;;;3.77;;
13343;SDS011;6741;48.964;9.406;2023-11-21T12:27:54;4.43;;;3.33;;
13343;SDS011;6741;48.964;9.406;2023-11-21T12:30:23;3.30;;;3.00;;
13343;SDS011;6741;48.964;9.406;2023-11-21T12:32:53;2.60;;;2.40;;
13343;SDS011;6741;48.964;9.406;2023-11-21T12:35:21;2.70;;;2.30;;
13343;SDS011;6741;48.964;9.406;2023-11-21T12:37:51;2.67;;;2.47;;
13343;SDS011;6741;48.964;9.406;2023-11-21T12:40:19;2.20;;;2.00;;
13343;SDS011;6741;48.964;9.406;2023-11-21T12:42:48;2.17;;;2.00;;
13343;SDS011;6741;48.964;9.406;2023-11-21T12:45:19;2.33;;;2.13;;
13343;SDS011;6741;48.964;9.406;2023-11-21T12:47:47;2.20;;;2.00;;
13343;SDS011;6741;48.964;9.406;2023-11-21T12:50:16;3.90;;;2.60;;
13343;SDS011;6741;48.964;9.406;2023-11-21T12:52:49;2.63;;;2.43;;
13343;SDS011;6741;48.964;9.406;2023-11-21T12:55:19;3.10;;;2.40;;
13343;SDS011;6741;48.964;9.406;2023-11-21T12:57:47;2.27;;;1.90;;
13343;SDS011;6741;48.964;9.406;2023-11-21T13:00:17;2.90;;;2.70;;
13343;SDS011;6741;48.964;9.406;2023-11-21T13:02:53;2.10;;;1.83;;
13343;SDS011;6741;48.964;9.406;2023-11-21T13:05:25;2.40;;;2.20;;
13343;SDS011;6741;48.964;9.406;2023-11-21T13:07:55;4.10;;;3.70;;
13343;SDS011;6741;48.964;9.406;2023-11-21T13:10:23;2.77;;;2.10;;
13343;SDS011;6741;48.964;9.406;2023-11-21T13:12:54;2.17;;;1.97;;
13343;SDS011;6741;48.964;9.406;2023-11-21T13:15:23;2.73;;;2.53;;
13343;SDS011;6741;48.964;9.406;2023-11-21T13:17:50;3.20;;;2.90;;
13343;SDS011;6741;48.964;9.406;2023-11-21T13:20:18;2.13;;;1.93;;
13343;SDS011;6741;48.964;9.406;2023-11-21T13:22:46;1.83;;;1.63;;
13343;SDS011;6741;48.964;9.406;2023-11-21T13:25:16;1.40;;;1.30;;
13343;SDS011;6741;48.964;9.406;2023-11-21T13:27:44;1.40;;;1.30;;
13343;SDS011;6741;48.964;9.406;2023-11-21T13:30:12;1.47;;;1.17;;
13343;SDS011;6741;48.964;9.406;2023-11-21T13:32:46;2.30;;;2.10;;
13343;SDS011;6741;48.964;9.406;2023-11-21T13:35:16;4.27;;;3.87;;
13343;SDS011;6741;48.964;9.406;2023-11-21T13:37:47;2.10;;;1.90;;
13343;SDS011;6741;48.964;9.406;2023-11-21T13:40:20;1.43;;;1.33;;
13343;SDS011;6741;48.964;9.406;2023-11-21T13:42:50;0.90;;;0.90;;
13343;SDS011;6741;48.964;9.406;2023-11-21T13:45:19;0.90;;;0.90;;
13343;SDS011;6741;48.964;9.406;2023-11-21T13:47:48;0.83;;;0.83;;
13343;SDS011;6741;48.964;9.406;2023-11-21T13:50:17;0.82;;;0.50;;
13343;SDS011;6741;48.964;9.406;2023-11-21T13:52:48;0.55;;;0.55;;
13343;SDS011;6741;48.964;9.406;2023-11-21T13:55:16;0.40;;;0.40;;
13343;SDS011;6741;48.964;9.406;2023-11-21T13:57:45;1.25;;;0.88;;
13343;SDS011;6741;48.964;9.406;2023-11-21T14:00:15;0.90;;;0.90;;
13343;SDS011;6741;48.964;9.406;2023-11-21T14:02:56;0.75;;;0.50;;
13343;SDS011;6741;48.964;9.406;2023-11-21T14:05:25;1.92;;;1.02;;
13343;SDS011;6741;48.964;9.406;2023-11-21T14:07:54;1.05;;;1.05;;
13343;SDS011;6741;48.964;9.406;2023-11-21T14:10:27;1.20;;;0.90;;
13343;SDS011;6741;48.964;9.406;2023-11-21T14:13:03;1.50;;;1.40;;
13343;SDS011;6741;48.964;9.406;2023-11-21T14:15:31;1.30;;;1.20;;
13343;SDS011;6741;48.964;9.406;2023-11-21T14:18:02;1.80;;;1.70;;
13343;SDS011;6741;48.964;9.406;2023-11-21T14:20:33;1.85;;;1.75;;
13343;SDS011;6741;48.964;9.406;2023-11-21T14:23:01;4.15;;;3.78;;
13343;SDS011;6741;48.964;9.406;2023-11-21T14:25:28;2.92;;;2.67;;
13343;SDS011;6741;48.964;9.406;2023-11-21T14:27:55;3.45;;;2.70;;
13343;SDS011;6741;48.964;9.406;2023-11-21T14:30:23;2.00;;;1.50;;
13343;SDS011;6741;48.964;9.406;2023-11-21T14:32:51;2.20;;;1.40;;
13343;SDS011;6741;48.964;9.406;2023-11-21T14:35:18;1.83;;;1.60;;
13343;SDS011;6741;48.964;9.406;2023-11-21T14:37:45;2.20;;;1.97;;
13343;SDS011;6741;48.964;9.406;2023-11-21T14:40:12;2.00;;;1.57;;
13343;SDS011;6741;48.964;9.406;2023-11-21T14:42:41;4.33;;;1.77;;
13343;SDS011;6741;48.964;9.406;2023-11-21T14:45:12;2.73;;;1.80;;
13343;SDS011;6741;48.964;9.406;2023-11-21T14:47:43;2.67;;;2.10;;
13343;SDS011;6741;48.964;9.406;2023-11-21T14:50:16;2.67;;;2.47;;
13343;SDS011;6741;48.964;9.406;2023-11-21T14:52:57;2.93;;;2.57;;
13343;SDS011;6741;48.964;9.406;2023-11-21T14:55:24;3.90;;;2.00;;
13343;SDS011;6741;48.964;9.406;2023-11-21T14:57:56;1.80;;;1.70;;
13343;SDS011;6741;48.964;9.406;2023-11-21T15:00:27;1.80;;;1.70;;
13343;SDS011;6741;48.964;9.406;2023-11-21T15:03:12;2.87;;;1.67;;
13343;SDS011;6741;48.964;9.406;2023-11-21T15:06:03;2.50;;;1.80;;
13343;SDS011;6741;48.964;9.406;2023-11-21T15:08:44;9.53;;;6.20;;
13343;SDS011;6741;48.964;9.406;2023-11-21T15:11:18;10.27;;;6.00;;